Time;durP1;ratioP1;P1;durP2;ratioP2;P2;SDS_P1;SDS_P2;PMS_P1;PMS_P2;Temp;Humidity;BMP_temperature;BMP_pressure;BME280_temperature;BME280_humidity;BME280_pressure;Samples;Min_cycle;Max_cycle;Signal;HPM_P1;HPM_P2
2023/11/11 00:02:10;;;;;;;8.07;7.97;;;7.10;99.90;;;;;;5018893;28;20493;-72
2023/11/11 00:04:38;;;;;;;7.73;7.63;;;7.00;99.90;;;;;;5028943;28;20965;-72
2023/11/11 00:07:06;;;;;;;7.70;7.60;;;7.00;99.90;;;;;;5017450;28;20970;-73
2023/11/11 00:09:34;;;;;;;8.20;8.10;;;7.00;99.90;;;;;;5053132;27;20872;-71
2023/11/11 00:12:02;;;;;;;7.73;7.63;;;7.10;99.90;;;;;;5018787;27;20473;-72
2023/11/11 00:14:29;;;;;;;8.23;8.13;;;7.10;99.90;;;;;;5037862;27;20948;-72
2023/11/11 00:16:58;;;;;;;8.47;8.37;;;7.10;99.90;;;;;;5022784;28;20457;-73
2023/11/11 00:19:26;;;;;;;8.20;8.10;;;7.10;99.90;;;;;;5022823;28;20464;-73
2023/11/11 00:21:53;;;;;;;7.80;7.70;;;7.10;99.90;;;;;;5025427;28;20529;-72
2023/11/11 00:24:22;;;;;;;8.53;8.43;;;7.10;99.90;;;;;;5027986;28;20454;-72
2023/11/11 00:26:49;;;;;;;8.20;8.10;;;7.00;99.90;;;;;;5020240;28;20469;-71
2023/11/11 00:29:17;;;;;;;7.97;7.87;;;7.00;99.90;;;;;;5017756;28;20473;-72
2023/11/11 00:31:45;;;;;;;8.17;8.07;;;7.00;99.90;;;;;;5016714;28;20956;-70
2023/11/11 00:34:12;;;;;;;7.70;7.60;;;7.00;99.90;;;;;;5010372;28;20496;-71
2023/11/11 00:36:40;;;;;;;6.73;6.63;;;7.00;99.90;;;;;;5027121;28;20490;-70
2023/11/11 00:39:10;;;;;;;7.60;7.50;;;7.00;99.90;;;;;;5014528;28;20982;-69
2023/11/11 00:41:39;;;;;;;6.67;6.57;;;7.10;99.90;;;;;;5025725;28;20503;-72
2023/11/11 00:44:09;;;;;;;6.33;6.23;;;7.10;99.90;;;;;;5026268;28;21035;-71
2023/11/11 00:46:38;;;;;;;6.10;6.00;;;7.10;99.90;;;;;;5022161;28;21134;-72
2023/11/11 00:49:05;;;;;;;7.40;7.30;;;7.10;99.90;;;;;;5011248;28;21127;-71
2023/11/11 00:51:32;;;;;;;6.47;6.37;;;7.10;99.90;;;;;;5017521;28;20493;-72
2023/11/11 00:53:59;;;;;;;7.20;7.10;;;7.10;99.90;;;;;;5020524;28;21235;-72
2023/11/11 00:56:26;;;;;;;6.90;6.80;;;7.10;99.90;;;;;;5022164;28;20835;-71
2023/11/11 00:58:55;;;;;;;7.03;6.93;;;7.10;99.90;;;;;;5022897;28;20566;-72
2023/11/11 01:01:22;;;;;;;7.23;7.13;;;7.00;99.90;;;;;;5026615;28;20544;-72
2023/11/11 01:03:49;;;;;;;8.30;8.20;;;7.00;99.90;;;;;;5018890;28;20474;-71
2023/11/11 01:06:17;;;;;;;7.90;7.80;;;7.00;99.90;;;;;;5017076;28;20784;-71
2023/11/11 01:08:45;;;;;;;7.70;7.60;;;6.90;99.90;;;;;;5022832;28;20457;-73
2023/11/11 01:11:13;;;;;;;6.97;6.87;;;6.90;99.90;;;;;;5022625;28;20483;-70
2023/11/11 01:13:40;;;;;;;7.20;7.10;;;6.90;99.90;;;;;;5063644;27;20491;-72
2023/11/11 01:16:09;;;;;;;7.43;7.33;;;6.80;99.90;;;;;;5026985;28;20461;-73
2023/11/11 01:18:36;;;;;;;7.33;7.23;;;6.80;99.90;;;;;;5013518;28;20960;-72
2023/11/11 01:21:05;;;;;;;7.47;7.37;;;6.70;99.90;;;;;;5019396;28;21027;-72
2023/11/11 01:23:33;;;;;;;7.67;7.57;;;6.70;99.90;;;;;;5008655;28;20550;-72
2023/11/11 01:26:01;;;;;;;8.40;8.30;;;6.70;99.90;;;;;;5019313;28;20469;-70
2023/11/11 01:28:29;;;;;;;8.10;8.00;;;6.70;99.90;;;;;;5024445;28;20485;-71
2023/11/11 01:30:56;;;;;;;7.50;7.40;;;6.70;99.90;;;;;;5023622;28;20847;-71
2023/11/11 01:33:25;;;;;;;7.53;7.43;;;6.70;99.90;;;;;;5006478;28;20504;-71
2023/11/11 01:35:52;;;;;;;7.70;7.60;;;6.70;99.90;;;;;;5021352;28;20470;-70
2023/11/11 01:38:19;;;;;;;8.27;8.17;;;6.70;99.90;;;;;;5015082;28;20473;-73
2023/11/11 01:40:46;;;;;;;8.20;8.10;;;6.70;99.90;;;;;;5020051;28;20464;-72
2023/11/11 01:43:16;;;;;;;8.90;8.80;;;6.60;99.90;;;;;;5020121;28;20999;-71
2023/11/11 01:45:43;;;;;;;7.77;7.67;;;6.60;99.90;;;;;;5016371;28;20489;-70
2023/11/11 01:48:11;;;;;;;8.00;7.90;;;6.60;99.90;;;;;;5015301;28;20874;-71
2023/11/11 01:50:41;;;;;;;8.37;8.27;;;6.60;99.90;;;;;;5012022;28;20488;-71
2023/11/11 01:53:10;;;;;;;8.67;8.57;;;6.60;99.90;;;;;;5025898;28;20571;-71
2023/11/11 01:55:38;;;;;;;9.43;9.23;;;6.60;99.90;;;;;;5021979;28;20464;-71
2023/11/11 01:58:05;;;;;;;8.90;8.80;;;6.50;99.90;;;;;;5021346;28;20980;-70
2023/11/11 02:00:35;;;;;;;8.87;8.77;;;6.50;99.90;;;;;;5026056;28;20483;-72
2023/11/11 02:03:03;;;;;;;9.27;9.07;;;6.50;99.90;;;;;;5026006;28;21048;-71
2023/11/11 02:05:32;;;;;;;8.80;8.70;;;6.50;99.90;;;;;;5013598;28;20477;-72
2023/11/11 02:08:07;;;;;;;9.80;9.60;;;6.40;99.90;;;;;;5023378;28;20807;-71
2023/11/11 02:10:35;;;;;;;9.90;9.70;;;6.50;99.90;;;;;;5045307;27;20474;-70
2023/11/11 02:13:03;;;;;;;9.60;9.40;;;6.50;99.90;;;;;;5034704;27;20489;-72
2023/11/11 02:15:30;;;;;;;9.37;9.17;;;6.50;99.90;;;;;;5026084;28;20942;-70
2023/11/11 02:18:03;;;;;;;9.53;9.33;;;6.60;99.90;;;;;;5026034;28;20461;-70
2023/11/11 02:20:33;;;;;;;8.37;8.27;;;6.60;99.90;;;;;;5021878;28;20469;-72
2023/11/11 02:23:02;;;;;;;8.37;8.27;;;6.60;99.90;;;;;;5016253;28;20940;-70
2023/11/11 02:25:30;;;;;;;9.00;8.90;;;6.60;99.90;;;;;;5010973;28;20461;-71
2023/11/11 02:27:57;;;;;;;9.50;9.30;;;6.60;99.90;;;;;;5017918;28;20560;-68
2023/11/11 02:30:24;;;;;;;8.93;8.83;;;6.50;99.90;;;;;;5023138;28;20474;-71
2023/11/11 02:32:51;;;;;;;9.00;8.90;;;6.50;99.90;;;;;;5021389;28;20496;-70
2023/11/11 02:35:19;;;;;;;9.70;9.50;;;6.50;99.90;;;;;;5025687;28;20865;-71
2023/11/11 02:37:45;;;;;;;9.50;9.30;;;6.50;99.90;;;;;;5017393;28;20475;-69
2023/11/11 02:40:13;;;;;;;8.03;7.93;;;6.50;99.90;;;;;;5020251;28;20731;-71
2023/11/11 02:42:42;;;;;;;8.37;8.27;;;6.50;99.90;;;;;;5015458;28;20974;-71
2023/11/11 02:45:11;;;;;;;8.60;8.50;;;6.60;99.90;;;;;;5022667;28;20472;-72
2023/11/11 02:47:37;;;;;;;8.53;8.43;;;6.70;99.90;;;;;;5025456;28;20476;-72
2023/11/11 02:50:05;;;;;;;8.63;8.53;;;6.80;99.90;;;;;;5017638;28;20885;-71
2023/11/11 02:52:32;;;;;;;8.70;8.60;;;6.80;99.90;;;;;;5018442;28;20472;-70
2023/11/11 02:54:59;;;;;;;8.37;8.27;;;6.80;99.90;;;;;;5023559;28;20497;-71
2023/11/11 02:57:26;;;;;;;9.40;9.20;;;6.70;99.90;;;;;;5020248;28;20476;-71
2023/11/11 02:59:55;;;;;;;9.40;9.20;;;6.70;99.90;;;;;;5016596;28;20473;-71
2023/11/11 03:02:23;;;;;;;8.97;8.87;;;6.70;99.90;;;;;;5011701;28;20494;-70
2023/11/11 03:04:50;;;;;;;8.90;8.80;;;6.70;99.90;;;;;;5025560;28;20466;-72
2023/11/11 03:07:17;;;;;;;9.57;9.37;;;6.80;99.90;;;;;;5025542;28;20492;-71
2023/11/11 03:09:43;;;;;;;10.37;10.17;;;6.80;99.90;;;;;;5028408;28;20826;-72
2023/11/11 03:12:12;;;;;;;9.87;9.67;;;6.80;99.90;;;;;;5022092;28;20484;-72
2023/11/11 03:14:40;;;;;;;10.20;10.00;;;6.80;99.90;;;;;;5012266;28;20482;-72
2023/11/11 03:17:08;;;;;;;10.60;10.40;;;6.70;99.90;;;;;;5024504;28;20457;-72
2023/11/11 03:19:35;;;;;;;10.47;10.27;;;6.70;99.90;;;;;;5025132;28;20834;-70
2023/11/11 03:22:02;;;;;;;10.90;10.70;;;6.60;99.90;;;;;;5025309;28;20475;-70
2023/11/11 03:24:29;;;;;;;10.17;9.97;;;6.50;99.90;;;;;;5016442;28;20465;-72
2023/11/11 03:26:56;;;;;;;9.70;9.50;;;6.50;99.90;;;;;;5009759;28;20462;-72
2023/11/11 03:29:22;;;;;;;9.67;9.47;;;6.50;99.90;;;;;;5023221;28;20464;-71
2023/11/11 03:31:50;;;;;;;9.60;9.40;;;6.50;99.90;;;;;;5023254;28;20950;-72
2023/11/11 03:34:18;;;;;;;9.40;9.20;;;6.50;99.90;;;;;;5022737;28;20523;-68
2023/11/11 03:36:45;;;;;;;10.10;9.90;;;6.50;99.90;;;;;;5015033;28;21097;-72
2023/11/11 03:39:12;;;;;;;8.97;8.87;;;6.50;99.90;;;;;;5021266;28;20461;-70
2023/11/11 03:41:39;;;;;;;10.60;10.40;;;6.60;99.90;;;;;;5024924;28;20449;-70
2023/11/11 03:44:08;;;;;;;10.80;10.60;;;6.50;99.90;;;;;;5022702;28;21090;-72
2023/11/11 03:46:35;;;;;;;10.40;10.20;;;6.60;99.90;;;;;;5017037;28;20469;-72
2023/11/11 03:49:02;;;;;;;10.00;9.80;;;6.60;99.90;;;;;;5025196;28;20464;-72
2023/11/11 03:51:30;;;;;;;10.20;10.00;;;6.70;99.90;;;;;;5026895;28;20473;-72
2023/11/11 03:53:57;;;;;;;10.50;10.30;;;6.70;99.90;;;;;;5026968;28;20485;-70
2023/11/11 03:56:24;;;;;;;11.10;10.80;;;6.80;99.90;;;;;;5014139;28;20526;-72
2023/11/11 03:58:51;;;;;;;10.43;10.23;;;6.80;99.90;;;;;;5024370;28;20489;-72
2023/11/11 04:01:18;;;;;;;10.53;10.33;;;6.80;99.90;;;;;;5027548;28;20820;-71
2023/11/11 04:03:45;;;;;;;11.30;11.00;;;6.70;99.90;;;;;;5019356;28;20480;-69
2023/11/11 04:06:12;;;;;;;11.90;11.60;;;6.80;99.90;;;;;;5024452;28;20465;-70
2023/11/11 04:08:41;;;;;;;10.87;10.67;;;6.80;99.90;;;;;;5031133;27;20782;-73
2023/11/11 04:11:09;;;;;;;10.33;10.13;;;6.80;99.90;;;;;;5030654;27;20501;-70
2023/11/11 04:13:38;;;;;;;10.40;10.20;;;6.80;99.90;;;;;;5022633;27;20492;-71
2023/11/11 04:16:06;;;;;;;10.57;10.37;;;6.80;99.90;;;;;;5017731;28;20497;-71
2023/11/11 04:18:34;;;;;;;11.13;10.83;;;6.90;99.90;;;;;;5027772;28;20539;-71
2023/11/11 04:21:01;;;;;;;10.70;10.50;;;6.90;99.90;;;;;;5021971;28;20498;-71
2023/11/11 04:23:29;;;;;;;11.60;11.30;;;6.90;99.90;;;;;;5017730;28;20552;-70
2023/11/11 04:25:58;;;;;;;11.50;11.20;;;6.90;99.90;;;;;;5025079;28;20465;-71
2023/11/11 04:28:25;;;;;;;11.80;11.50;;;6.80;99.90;;;;;;5014711;28;20848;-70
2023/11/11 04:30:54;;;;;;;12.30;12.00;;;6.80;99.90;;;;;;5017115;28;20476;-72
2023/11/11 04:33:20;;;;;;;11.53;11.23;;;6.80;99.90;;;;;;5020466;28;20460;-70
2023/11/11 04:35:47;;;;;;;11.63;11.33;;;6.80;99.90;;;;;;5026523;28;20454;-72
2023/11/11 04:38:15;;;;;;;11.67;11.37;;;6.80;99.90;;;;;;5025680;28;20971;-71
2023/11/11 04:40:44;;;;;;;11.40;11.10;;;6.90;99.90;;;;;;5016320;28;20558;-70
2023/11/11 04:43:12;;;;;;;12.87;12.47;;;6.80;99.90;;;;;;5026661;28;20496;-70
2023/11/11 04:45:39;;;;;;;13.70;13.30;;;6.80;99.90;;;;;;5024159;28;20492;-71
2023/11/11 04:48:06;;;;;;;12.77;12.37;;;6.90;99.90;;;;;;5022861;28;20617;-71
2023/11/11 04:50:33;;;;;;;12.90;12.50;;;6.90;99.90;;;;;;5014999;28;20493;-70
2023/11/11 04:53:00;;;;;;;13.90;13.50;;;6.90;99.90;;;;;;5023833;28;20455;-70
2023/11/11 04:55:27;;;;;;;12.87;12.47;;;6.90;99.90;;;;;;5021991;28;20532;-71
2023/11/11 04:57:54;;;;;;;12.00;11.70;;;6.90;99.90;;;;;;5011765;28;20478;-71
2023/11/11 05:00:22;;;;;;;12.60;12.30;;;6.80;99.90;;;;;;5023028;28;20568;-70
2023/11/11 05:02:50;;;;;;;13.20;12.80;;;6.80;99.90;;;;;;5015536;28;20472;-70
2023/11/11 05:05:31;;;;;;;12.43;12.13;;;6.90;99.90;;;;;;5018698;28;20457;-70
2023/11/11 05:07:58;;;;;;;13.27;12.87;;;6.90;99.90;;;;;;5011919;28;20472;-72
2023/11/11 05:10:26;;;;;;;13.30;12.90;;;6.80;99.90;;;;;;5030737;27;20468;-71
2023/11/11 05:12:55;;;;;;;13.43;13.03;;;6.80;99.90;;;;;;5049593;27;20520;-71
2023/11/11 05:15:25;;;;;;;13.00;12.60;;;6.80;99.90;;;;;;5017254;28;20521;-72
2023/11/11 05:17:52;;;;;;;13.30;12.90;;;6.70;99.90;;;;;;5022156;28;20889;-71
2023/11/11 05:20:19;;;;;;;12.73;12.33;;;6.60;99.90;;;;;;5010184;28;20466;-70
2023/11/11 05:22:46;;;;;;;13.20;12.80;;;6.50;99.90;;;;;;5021920;28;20464;-71
2023/11/11 05:25:13;;;;;;;13.50;13.10;;;6.50;99.90;;;;;;5014587;28;20478;-71
2023/11/11 05:27:40;;;;;;;13.20;12.80;;;6.50;99.90;;;;;;5018773;28;20462;-71
2023/11/11 05:30:09;;;;;;;14.03;13.60;;;6.50;99.90;;;;;;5025876;28;20876;-71
2023/11/11 05:32:37;;;;;;;13.37;12.97;;;6.40;99.90;;;;;;5020211;28;20509;-71
2023/11/11 05:35:05;;;;;;;13.43;13.03;;;6.30;99.90;;;;;;5020685;28;20504;-69
2023/11/11 05:37:32;;;;;;;13.60;13.20;;;6.30;99.90;;;;;;5009676;28;20560;-71
2023/11/11 05:39:59;;;;;;;13.90;13.50;;;6.20;99.90;;;;;;5016265;28;20823;-69
2023/11/11 05:42:25;;;;;;;13.57;13.17;;;6.20;99.90;;;;;;5025758;28;20453;-70
2023/11/11 05:44:52;;;;;;;13.10;12.70;;;6.20;99.90;;;;;;5016028;28;20486;-70
2023/11/11 05:47:19;;;;;;;13.53;13.13;;;6.20;99.90;;;;;;5023358;28;20991;-69
2023/11/11 05:49:49;;;;;;;13.20;12.80;;;6.10;99.90;;;;;;5008244;28;20672;-69
2023/11/11 05:52:16;;;;;;;13.50;13.10;;;6.10;99.90;;;;;;5014782;28;20466;-69
2023/11/11 05:54:44;;;;;;;13.43;13.03;;;6.10;99.90;;;;;;5024763;28;20562;-69
2023/11/11 05:57:10;;;;;;;12.80;12.40;;;6.10;99.90;;;;;;5020268;28;20560;-71
2023/11/11 05:59:37;;;;;;;13.30;12.90;;;6.10;99.90;;;;;;5021317;28;20560;-70
2023/11/11 06:02:05;;;;;;;13.20;12.80;;;6.20;99.90;;;;;;5017508;28;20567;-68
2023/11/11 06:04:34;;;;;;;13.33;12.93;;;6.30;99.90;;;;;;5018841;28;20885;-71
2023/11/11 06:07:03;;;;;;;13.30;12.90;;;6.30;99.90;;;;;;5012951;28;20469;-70
2023/11/11 06:09:30;;;;;;;12.67;12.33;;;6.20;99.90;;;;;;5024805;28;20812;-71
2023/11/11 06:11:57;;;;;;;13.40;13.00;;;6.10;99.90;;;;;;5018714;28;20565;-71
2023/11/11 06:14:23;;;;;;;13.23;12.83;;;6.10;99.90;;;;;;5027884;28;20488;-70
2023/11/11 06:16:50;;;;;;;12.77;12.37;;;6.00;99.90;;;;;;5020102;28;20464;-70
2023/11/11 06:19:18;;;;;;;13.33;12.93;;;6.00;99.90;;;;;;5018076;28;20518;-71
2023/11/11 06:21:46;;;;;;;14.13;13.63;;;5.90;99.90;;;;;;5008120;28;20891;-68
2023/11/11 06:24:15;;;;;;;12.90;12.50;;;5.90;99.90;;;;;;5012910;28;20497;-70
2023/11/11 06:26:43;;;;;;;14.27;13.77;;;5.80;99.90;;;;;;5011146;28;20457;-71
2023/11/11 06:29:10;;;;;;;13.53;13.13;;;5.80;99.90;;;;;;5025151;28;20862;-69
2023/11/11 06:31:37;;;;;;;13.70;13.30;;;5.70;99.90;;;;;;5021949;28;20821;-71
2023/11/11 06:34:04;;;;;;;13.20;12.80;;;5.70;99.90;;;;;;5018723;28;20469;-69
2023/11/11 06:36:31;;;;;;;13.87;13.47;;;5.60;99.90;;;;;;5022382;28;20557;-71
2023/11/11 06:38:58;;;;;;;13.90;13.50;;;5.60;99.90;;;;;;5017639;28;20525;-71
2023/11/11 06:41:26;;;;;;;14.23;13.73;;;5.60;99.90;;;;;;5021293;28;20502;-70
2023/11/11 06:43:54;;;;;;;14.37;13.87;;;5.50;99.90;;;;;;5020560;28;20473;-69
2023/11/11 06:46:22;;;;;;;14.73;14.23;;;5.50;99.90;;;;;;5017352;28;20580;-71
2023/11/11 06:48:48;;;;;;;14.20;13.77;;;5.50;99.90;;;;;;5020573;28;20545;-69
2023/11/11 06:51:16;;;;;;;14.40;13.90;;;5.40;99.90;;;;;;5009974;28;20491;-71
2023/11/11 06:53:42;;;;;;;14.33;13.83;;;5.40;99.90;;;;;;5011944;28;20529;-71
2023/11/11 06:56:14;;;;;;;13.73;13.33;;;5.40;99.90;;;;;;5017039;28;20496;-70
2023/11/11 06:58:42;;;;;;;13.67;13.27;;;5.40;99.90;;;;;;5007769;28;20889;-70
2023/11/11 07:01:11;;;;;;;14.40;13.90;;;5.40;99.90;;;;;;5018659;28;20473;-71
2023/11/11 07:03:39;;;;;;;14.10;13.70;;;5.40;99.90;;;;;;5011643;28;20480;-71
2023/11/11 07:06:06;;;;;;;13.70;13.30;;;5.40;99.90;;;;;;5007613;28;20471;-69
2023/11/11 07:08:32;;;;;;;12.80;12.43;;;5.40;99.90;;;;;;5014208;28;20873;-69
2023/11/11 07:11:00;;;;;;;13.50;13.10;;;5.40;99.90;;;;;;5010449;28;20998;-71
2023/11/11 07:13:28;;;;;;;14.10;13.70;;;5.40;99.90;;;;;;5060292;28;20459;-70
2023/11/11 07:15:56;;;;;;;12.73;12.33;;;5.40;99.90;;;;;;5024303;28;20554;-70
2023/11/11 07:18:23;;;;;;;13.27;12.87;;;5.40;99.90;;;;;;5009184;28;20473;-71
2023/11/11 07:20:52;;;;;;;13.17;12.77;;;5.40;99.90;;;;;;5020539;28;20547;-69
2023/11/11 07:23:19;;;;;;;13.23;12.83;;;5.40;99.90;;;;;;5015858;28;20557;-70
2023/11/11 07:25:46;;;;;;;13.30;12.90;;;5.50;99.90;;;;;;5025952;28;20806;-70
2023/11/11 07:28:14;;;;;;;14.10;13.70;;;5.50;99.90;;;;;;5010957;28;20496;-70
2023/11/11 07:30:42;;;;;;;13.03;12.63;;;5.50;99.90;;;;;;5026246;28;20457;-71
2023/11/11 07:33:11;;;;;;;13.63;13.23;;;5.60;99.90;;;;;;5023537;28;20549;-70
2023/11/11 07:35:38;;;;;;;14.60;14.10;;;5.60;99.90;;;;;;5022840;28;20729;-69
2023/11/11 07:38:06;;;;;;;13.83;13.43;;;5.70;99.90;;;;;;5014155;28;20461;-71
2023/11/11 07:40:33;;;;;;;14.20;13.73;;;5.80;99.90;;;;;;5020382;28;20938;-70
2023/11/11 07:43:00;;;;;;;13.70;13.30;;;5.80;99.90;;;;;;5019847;28;20469;-71
2023/11/11 07:45:27;;;;;;;13.63;13.23;;;5.70;99.90;;;;;;5015144;28;20489;-70
2023/11/11 07:47:54;;;;;;;13.03;12.63;;;5.70;99.90;;;;;;5024969;28;20454;-69
2023/11/11 07:50:23;;;;;;;13.00;12.60;;;5.70;99.90;;;;;;5023377;28;20631;-71
2023/11/11 07:52:54;;;;;;;12.90;12.50;;;5.70;99.90;;;;;;5027800;28;20468;-71
2023/11/11 07:55:22;;;;;;;13.20;12.80;;;5.80;99.90;;;;;;5010178;28;20591;-70
2023/11/11 07:57:50;;;;;;;13.43;13.03;;;5.80;99.90;;;;;;5020936;28;20469;-71
2023/11/11 08:00:18;;;;;;;13.10;12.70;;;5.90;99.90;;;;;;5023439;28;20527;-71
2023/11/11 08:02:47;;;;;;;12.80;12.40;;;5.90;99.90;;;;;;5022976;28;20464;-70
2023/11/11 08:05:14;;;;;;;11.90;11.60;;;6.10;99.90;;;;;;5027453;28;20464;-70
2023/11/11 08:07:42;;;;;;;12.30;12.00;;;6.30;99.90;;;;;;5026165;28;20464;-70
2023/11/11 08:10:11;;;;;;;12.17;11.87;;;6.40;99.90;;;;;;5022390;27;20458;-71
2023/11/11 08:12:38;;;;;;;11.90;11.60;;;6.40;99.90;;;;;;5045834;27;20468;-69
2023/11/11 08:15:06;;;;;;;12.50;12.17;;;6.40;99.90;;;;;;5027423;28;20514;-70
2023/11/11 08:17:35;;;;;;;12.53;12.13;;;6.40;99.90;;;;;;5027290;28;20969;-70
2023/11/11 08:20:03;;;;;;;11.47;11.17;;;6.40;99.90;;;;;;5021873;28;21015;-70
2023/11/11 08:22:30;;;;;;;11.40;11.10;;;6.40;99.90;;;;;;5022336;28;20975;-69
2023/11/11 08:24:58;;;;;;;11.07;10.77;;;6.50;99.90;;;;;;5027400;28;20465;-71
2023/11/11 08:27:26;;;;;;;11.33;11.03;;;6.70;99.90;;;;;;5023222;28;20679;-70
2023/11/11 08:29:53;;;;;;;11.30;11.00;;;6.70;99.90;;;;;;5020926;28;20488;-70
2023/11/11 08:32:20;;;;;;;11.30;11.00;;;6.80;99.90;;;;;;5023965;28;20465;-71
2023/11/11 08:34:46;;;;;;;10.80;10.60;;;6.80;99.90;;;;;;5018180;28;20496;-70
2023/11/11 08:37:13;;;;;;;10.30;10.10;;;6.80;99.90;;;;;;5024472;28;20468;-70
2023/11/11 08:39:41;;;;;;;10.37;10.17;;;6.80;99.90;;;;;;5021640;28;20472;-70
2023/11/11 08:42:09;;;;;;;10.20;10.00;;;6.80;99.90;;;;;;5016501;28;20471;-70
2023/11/11 08:44:36;;;;;;;10.13;9.93;;;6.90;99.90;;;;;;5026776;28;20496;-70
2023/11/11 08:47:03;;;;;;;10.07;9.87;;;6.90;99.90;;;;;;5016073;28;20473;-70
2023/11/11 08:49:31;;;;;;;9.63;9.43;;;6.90;99.90;;;;;;5011662;28;20462;-70
2023/11/11 08:51:59;;;;;;;9.90;9.70;;;7.00;99.90;;;;;;5026643;28;20473;-70
2023/11/11 08:54:26;;;;;;;9.30;9.10;;;7.00;99.90;;;;;;5018635;28;20465;-70
2023/11/11 08:56:54;;;;;;;9.40;9.20;;;7.10;99.90;;;;;;5018986;28;20532;-70
2023/11/11 08:59:23;;;;;;;9.17;8.97;;;7.20;99.90;;;;;;5013762;28;20595;-70
2023/11/11 09:01:50;;;;;;;8.10;8.00;;;7.20;99.90;;;;;;5016853;28;20866;-69
2023/11/11 09:04:17;;;;;;;8.50;8.40;;;7.30;99.90;;;;;;5023267;28;20456;-70
2023/11/11 09:06:45;;;;;;;8.60;8.50;;;7.30;99.90;;;;;;5026488;28;20468;-70
2023/11/11 09:09:15;;;;;;;9.47;9.27;;;7.30;99.90;;;;;;5026507;28;20544;-70
2023/11/11 09:11:42;;;;;;;8.77;8.63;;;7.30;99.90;;;;;;5016534;28;20473;-70
2023/11/11 09:14:10;;;;;;;7.80;7.70;;;7.20;99.90;;;;;;5060656;27;20594;-70
2023/11/11 09:16:38;;;;;;;8.40;8.30;;;7.20;99.90;;;;;;5015117;28;21108;-70
2023/11/11 09:19:04;;;;;;;8.30;8.20;;;7.30;99.90;;;;;;5016756;28;20473;-70
2023/11/11 09:21:32;;;;;;;8.17;8.07;;;7.30;99.90;;;;;;5026293;28;20809;-70
2023/11/11 09:24:00;;;;;;;7.90;7.80;;;7.30;99.90;;;;;;5026586;28;20876;-70
2023/11/11 09:26:28;;;;;;;7.83;7.73;;;7.40;99.90;;;;;;5020042;28;20472;-71
2023/11/11 09:28:55;;;;;;;8.00;7.90;;;7.50;99.90;;;;;;5017912;28;20474;-70
2023/11/11 09:31:22;;;;;;;7.83;7.73;;;7.60;99.90;;;;;;5025632;28;20858;-71
2023/11/11 09:33:51;;;;;;;8.13;8.03;;;7.60;99.90;;;;;;5015429;28;20502;-70
2023/11/11 09:36:19;;;;;;;8.20;8.10;;;7.70;99.90;;;;;;5023422;28;20497;-71
2023/11/11 09:38:46;;;;;;;8.20;8.10;;;7.80;99.90;;;;;;5021572;28;20477;-71
2023/11/11 09:41:14;;;;;;;8.17;8.07;;;7.90;99.90;;;;;;5020461;28;21002;-70
2023/11/11 09:43:41;;;;;;;8.33;8.23;;;8.00;99.90;;;;;;5016843;28;20462;-72
2023/11/11 09:46:15;;;;;;;8.97;8.77;;;8.10;99.90;;;;;;5012500;28;20633;-72
2023/11/11 09:48:42;;;;;;;8.13;8.03;;;8.00;99.90;;;;;;5019544;28;20479;-71
2023/11/11 09:51:12;;;;;;;8.50;8.40;;;8.10;99.90;;;;;;5026074;28;20505;-70
2023/11/11 09:53:40;;;;;;;8.30;8.20;;;8.10;99.90;;;;;;5016615;28;20472;-70
2023/11/11 09:56:10;;;;;;;8.43;8.33;;;8.20;99.90;;;;;;5019116;28;20485;-70
2023/11/11 09:58:38;;;;;;;8.70;8.60;;;8.30;99.90;;;;;;5018420;28;20469;-72
2023/11/11 10:01:05;;;;;;;9.13;8.93;;;8.40;99.90;;;;;;5024557;28;20936;-72
2023/11/11 10:03:32;;;;;;;9.43;9.23;;;8.60;99.90;;;;;;5021989;28;20469;-70
2023/11/11 10:06:01;;;;;;;9.20;9.00;;;8.70;99.90;;;;;;5016365;28;21001;-71
2023/11/11 10:08:30;;;;;;;9.03;8.83;;;8.80;99.90;;;;;;5023087;28;20457;-70
2023/11/11 10:10:59;;;;;;;9.57;9.37;;;9.00;99.90;;;;;;5071337;27;20470;-71
2023/11/11 10:13:27;;;;;;;9.67;9.47;;;9.10;99.90;;;;;;5014640;28;20477;-70
2023/11/11 10:16:16;;;;;;;10.17;9.97;;;8.90;99.90;;;;;;5025637;28;20489;-72
2023/11/11 10:18:45;;;;;;;10.20;10.00;;;8.80;99.90;;;;;;5021976;28;20502;-70
2023/11/11 10:21:13;;;;;;;10.10;9.90;;;8.80;99.90;;;;;;5012074;28;20989;-71
2023/11/11 10:23:42;;;;;;;10.40;10.20;;;8.60;99.90;;;;;;5017665;28;20817;-71
2023/11/11 10:26:10;;;;;;;10.30;10.10;;;8.60;99.90;;;;;;5020312;28;20464;-71
2023/11/11 10:28:36;;;;;;;9.53;9.33;;;8.80;99.90;;;;;;5014590;28;20963;-71
2023/11/11 10:31:07;;;;;;;10.10;9.90;;;9.00;99.90;;;;;;5024166;28;20480;-69
2023/11/11 10:33:35;;;;;;;10.30;10.10;;;9.10;99.90;;;;;;5025780;28;20458;-70
2023/11/11 10:36:03;;;;;;;10.60;10.40;;;9.40;99.90;;;;;;5014950;28;20592;-70
2023/11/11 10:38:30;;;;;;;10.27;10.07;;;9.60;99.90;;;;;;5016044;28;21000;-71
2023/11/11 10:40:59;;;;;;;9.87;9.67;;;9.90;99.90;;;;;;5016562;28;20549;-70
2023/11/11 10:43:27;;;;;;;10.10;9.90;;;10.10;99.90;;;;;;5024828;28;20572;-69
2023/11/11 10:45:55;;;;;;;10.10;9.90;;;10.50;99.90;;;;;;5025078;28;20481;-72
2023/11/11 10:48:23;;;;;;;10.87;10.57;;;10.90;99.90;;;;;;5023631;28;20458;-70
2023/11/11 10:50:53;;;;;;;11.07;10.77;;;10.80;99.90;;;;;;5020224;28;20975;-70
2023/11/11 10:53:21;;;;;;;11.47;11.17;;;10.80;99.90;;;;;;5010111;28;20470;-70
2023/11/11 10:55:50;;;;;;;12.50;12.10;;;10.60;99.90;;;;;;5017910;28;20486;-71
2023/11/11 10:58:18;;;;;;;11.80;11.50;;;10.20;99.90;;;;;;5021173;28;20490;-69
2023/11/11 11:00:46;;;;;;;11.57;11.27;;;10.10;99.90;;;;;;5024054;28;20446;-70
2023/11/11 11:03:14;;;;;;;11.47;11.17;;;10.30;99.90;;;;;;5025160;28;20512;-72
2023/11/11 11:05:47;;;;;;;11.80;11.50;;;10.50;99.90;;;;;;5020420;28;21031;-69
2023/11/11 11:08:23;;;;;;;12.10;11.80;;;10.30;99.90;;;;;;5024260;28;20446;-70
2023/11/11 11:11:03;;;;;;;11.87;11.57;;;10.20;99.90;;;;;;5010295;28;20951;-70
2023/11/11 11:13:33;;;;;;;12.30;12.00;;;9.90;99.90;;;;;;5006453;28;20569;-71
2023/11/11 11:16:01;;;;;;;11.70;11.40;;;9.80;99.90;;;;;;5024607;28;20506;-69
2023/11/11 11:18:28;;;;;;;11.90;11.60;;;9.70;99.90;;;;;;5025279;28;20568;-70
2023/11/11 11:20:55;;;;;;;11.97;11.67;;;9.60;99.90;;;;;;5024471;28;20695;-70
2023/11/11 11:23:23;;;;;;;11.63;11.33;;;9.60;99.90;;;;;;5012128;28;20475;-71
2023/11/11 11:25:53;;;;;;;11.30;11.00;;;9.60;99.90;;;;;;5012449;28;20568;-69
2023/11/11 11:28:25;;;;;;;11.50;11.20;;;9.80;99.90;;;;;;5015237;28;21078;-70
2023/11/11 11:30:55;;;;;;;11.90;11.60;;;9.70;99.90;;;;;;5012068;28;21009;-70
2023/11/11 11:33:26;;;;;;;11.80;11.50;;;9.70;99.90;;;;;;5021749;28;20460;-70
2023/11/11 11:35:56;;;;;;;12.40;12.00;;;9.70;99.90;;;;;;5022120;28;20481;-71
2023/11/11 11:38:28;;;;;;;11.80;11.50;;;9.70;99.90;;;;;;5018452;28;20870;-72
2023/11/11 11:41:06;;;;;;;12.43;12.03;;;9.70;99.90;;;;;;5012689;28;20722;-72
2023/11/11 11:43:34;;;;;;;12.50;12.10;;;9.70;99.90;;;;;;5021058;28;20453;-70
2023/11/11 11:46:04;;;;;;;12.10;11.80;;;9.80;99.90;;;;;;5020384;28;20496;-70
2023/11/11 11:48:32;;;;;;;12.77;12.37;;;10.00;99.90;;;;;;5018010;28;20831;-70
2023/11/11 11:51:05;;;;;;;12.90;12.50;;;9.90;99.90;;;;;;5017386;28;20563;-69
2023/11/11 11:53:31;;;;;;;12.70;12.30;;;9.90;99.90;;;;;;5022782;28;20458;-72
2023/11/11 11:55:59;;;;;;;12.43;12.03;;;9.70;99.90;;;;;;5011811;28;20566;-69
2023/11/11 11:58:25;;;;;;;13.00;12.60;;;9.70;99.90;;;;;;5021371;28;20893;-70
2023/11/11 12:00:53;;;;;;;12.67;12.27;;;9.60;99.90;;;;;;5016517;28;20504;-70
2023/11/11 12:03:21;;;;;;;12.87;12.47;;;9.60;99.90;;;;;;5015144;28;20724;-70
2023/11/11 12:05:51;;;;;;;13.03;12.63;;;9.70;99.90;;;;;;5021915;28;20464;-72
2023/11/11 12:08:20;;;;;;;12.47;12.07;;;9.80;99.90;;;;;;5024400;28;20454;-71
2023/11/11 12:10:47;;;;;;;12.70;12.30;;;10.10;99.90;;;;;;5041704;28;20914;-71
2023/11/11 12:13:15;;;;;;;12.50;12.10;;;10.20;99.90;;;;;;5020519;27;20470;-73
2023/11/11 12:15:51;;;;;;;12.13;11.83;;;10.00;99.90;;;;;;5026536;28;21051;-73
2023/11/11 12:18:19;;;;;;;12.17;11.87;;;10.00;99.90;;;;;;5022988;28;20457;-71
2023/11/11 12:20:47;;;;;;;11.63;11.33;;;10.00;99.90;;;;;;5017749;28;20538;-72
2023/11/11 12:23:14;;;;;;;12.70;12.30;;;10.10;99.90;;;;;;5026146;28;20454;-74
2023/11/11 12:25:42;;;;;;;11.60;11.30;;;10.10;99.90;;;;;;5024952;28;20480;-72
2023/11/11 12:28:09;;;;;;;11.90;11.60;;;10.00;99.90;;;;;;5022486;28;20462;-72
2023/11/11 12:30:36;;;;;;;12.07;11.77;;;10.10;99.90;;;;;;5019327;28;20458;-73
2023/11/11 12:33:05;;;;;;;11.80;11.50;;;9.90;99.90;;;;;;5026619;28;20462;-71
2023/11/11 12:35:33;;;;;;;12.17;11.87;;;10.20;99.90;;;;;;5027062;28;20559;-71
2023/11/11 12:38:21;;;;;;;12.00;11.70;;;10.40;99.90;;;;;;5027065;28;20498;-71
2023/11/11 12:40:50;;;;;;;11.97;11.67;;;10.60;99.90;;;;;;5011203;28;20551;-73
2023/11/11 12:43:17;;;;;;;12.47;12.10;;;10.40;99.90;;;;;;5025332;28;20489;-74
2023/11/11 12:45:50;;;;;;;12.63;12.23;;;10.20;99.90;;;;;;5020859;28;20497;-71
2023/11/11 12:48:17;;;;;;;13.03;12.63;;;10.60;99.90;;;;;;5019912;28;20453;-69